Time;durP1;ratioP1;P1;durP2;ratioP2;P2;SDS_P1;SDS_P2;PMS_P1;PMS_P2;Temp;Humidity;BMP_temperature;BMP_pressure;BME280_temperature;BME280_humidity;BME280_pressure;Samples;Min_cycle;Max_cycle;Signal;HPM_P1;HPM_P2
2024/04/01 00:01:00;;;;;;;25.50;4.57;;;;;;;;;;5015218;28;20120;-66
2024/04/01 00:03:25;;;;;;;22.90;4.28;;;;;;;;;;5014892;28;20148;-66
2024/04/01 00:05:54;;;;;;;35.00;5.20;;;;;;;;;;5015074;28;20029;-66
2024/04/01 00:08:21;;;;;;;22.83;3.83;;;;;;;;;;5015340;28;20527;-66
2024/04/01 00:10:46;;;;;;;30.52;4.22;;;;;;;;;;5015009;28;20105;-66
2024/04/01 00:13:12;;;;;;;28.73;4.65;;;;;;;;;;5015536;28;20104;-66
2024/04/01 00:15:39;;;;;;;31.90;4.30;;;;;;;;;;5015197;28;20457;-66
2024/04/01 00:18:04;;;;;;;30.08;4.88;;;;;;;;;;5015439;28;20087;-66
2024/04/01 00:20:30;;;;;;;29.23;4.38;;;;;;;;;;5014772;28;20466;-66
2024/04/01 00:22:55;;;;;;;24.23;4.55;;;;;;;;;;5013516;28;20038;-66
2024/04/01 00:25:20;;;;;;;30.73;4.50;;;;;;;;;;5014776;28;20026;-66
2024/04/01 00:27:46;;;;;;;22.95;3.95;;;;;;;;;;5014755;28;20029;-66
2024/04/01 00:30:11;;;;;;;22.58;4.13;;;;;;;;;;5014676;28;20442;-66
2024/04/01 00:32:36;;;;;;;30.65;5.45;;;;;;;;;;5014817;28;20041;-66
2024/04/01 00:35:02;;;;;;;22.45;4.28;;;;;;;;;;5013395;28;20080;-66
2024/04/01 00:37:27;;;;;;;28.73;5.15;;;;;;;;;;5014816;28;20033;-66
2024/04/01 00:39:53;;;;;;;26.20;4.70;;;;;;;;;;5014451;28;20101;-66
2024/04/01 00:42:19;;;;;;;24.52;4.35;;;;;;;;;;5014748;28;20492;-66
2024/04/01 00:44:45;;;;;;;26.92;4.57;;;;;;;;;;5014995;28;20045;-66
2024/04/01 00:47:10;;;;;;;27.38;4.38;;;;;;;;;;5013679;28;20469;-66
2024/04/01 00:49:36;;;;;;;31.48;3.63;;;;;;;;;;5014348;28;20113;-66
2024/04/01 00:52:01;;;;;;;24.30;4.32;;;;;;;;;;5014554;28;20030;-66
2024/04/01 00:54:26;;;;;;;28.15;4.63;;;;;;;;;;5014563;28;20033;-66
2024/04/01 00:56:52;;;;;;;26.23;4.47;;;;;;;;;;5014523;28;20125;-63
2024/04/01 00:59:18;;;;;;;32.97;4.32;;;;;;;;;;5029367;23;20062;-63
2024/04/01 01:01:45;;;;;;;20.52;3.85;;;;;;;;;;5014416;28;20101;-63
2024/04/01 01:04:11;;;;;;;29.83;5.13;;;;;;;;;;5014113;28;20045;-63
2024/04/01 01:06:37;;;;;;;27.73;4.78;;;;;;;;;;5012921;28;20099;-63
2024/04/01 01:09:02;;;;;;;32.70;5.43;;;;;;;;;;5012768;28;20489;-63
2024/04/01 01:11:28;;;;;;;23.25;4.50;;;;;;;;;;5012767;28;20026;-63
2024/04/01 01:13:54;;;;;;;25.08;4.20;;;;;;;;;;5014013;28;20141;-63
2024/04/01 01:16:19;;;;;;;24.90;4.55;;;;;;;;;;5014183;28;20501;-63
2024/04/01 01:18:45;;;;;;;25.48;4.55;;;;;;;;;;5014212;28;20037;-62
2024/04/01 01:21:10;;;;;;;24.05;4.45;;;;;;;;;;5013913;28;20495;-63
2024/04/01 01:23:35;;;;;;;23.38;4.65;;;;;;;;;;5013867;28;20014;-63
2024/04/01 01:26:01;;;;;;;22.65;4.40;;;;;;;;;;5013860;28;20030;-63
2024/04/01 01:28:26;;;;;;;30.48;4.68;;;;;;;;;;5014075;28;20065;-63
2024/04/01 01:30:52;;;;;;;29.60;4.18;;;;;;;;;;5013842;28;20041;-64
2024/04/01 01:33:18;;;;;;;27.02;4.13;;;;;;;;;;5014038;28;20041;-63
2024/04/01 01:35:44;;;;;;;21.63;3.92;;;;;;;;;;5013811;28;20025;-63
2024/04/01 01:38:10;;;;;;;25.70;4.22;;;;;;;;;;5012844;28;20041;-63
2024/04/01 01:40:35;;;;;;;26.75;3.85;;;;;;;;;;5013265;28;20038;-63
2024/04/01 01:43:01;;;;;;;22.55;3.67;;;;;;;;;;5013683;28;20557;-63
2024/04/01 01:45:27;;;;;;;27.48;4.18;;;;;;;;;;5013911;28;20030;-63
2024/04/01 01:47:52;;;;;;;27.73;4.88;;;;;;;;;;5014234;28;20026;-63
2024/04/01 01:50:24;;;;;;;27.05;4.15;;;;;;;;;;5013637;28;20025;-63
2024/04/01 01:52:49;;;;;;;27.15;4.13;;;;;;;;;;5014141;28;20084;-64
2024/04/01 01:55:15;;;;;;;31.30;4.70;;;;;;;;;;5013584;28;20112;-64
2024/04/01 01:57:42;;;;;;;26.35;4.30;;;;;;;;;;5014992;28;20128;-63
2024/04/01 02:00:13;;;;;;;21.52;3.92;;;;;;;;;;5019069;28;20050;-63
2024/04/01 02:02:42;;;;;;;23.25;3.72;;;;;;;;;;5019308;28;20030;-63
2024/04/01 02:05:07;;;;;;;25.73;4.68;;;;;;;;;;5017655;28;20101;-63
2024/04/01 02:07:33;;;;;;;21.13;3.95;;;;;;;;;;5017382;28;20136;-63
2024/04/01 02:09:58;;;;;;;21.70;3.97;;;;;;;;;;5016033;28;20026;-63
2024/04/01 02:12:24;;;;;;;25.30;3.72;;;;;;;;;;5017505;28;20436;-63
2024/04/01 02:14:49;;;;;;;32.13;4.05;;;;;;;;;;5017222;28;20065;-63
2024/04/01 02:17:14;;;;;;;20.40;3.72;;;;;;;;;;5017740;28;20040;-63
2024/04/01 02:19:46;;;;;;;25.98;4.18;;;;;;;;;;5017560;28;20068;-63
2024/04/01 02:22:16;;;;;;;26.15;4.50;;;;;;;;;;5017348;28;20050;-64
2024/04/01 02:24:42;;;;;;;31.90;4.50;;;;;;;;;;5017039;28;20556;-63
2024/04/01 02:27:11;;;;;;;29.38;4.15;;;;;;;;;;5015690;28;20026;-63
2024/04/01 02:29:39;;;;;;;28.92;4.28;;;;;;;;;;5016945;28;20112;-63
2024/04/01 02:32:05;;;;;;;17.42;3.80;;;;;;;;;;5017393;28;20508;-63
2024/04/01 02:34:30;;;;;;;28.95;4.90;;;;;;;;;;5015613;28;20057;-63
2024/04/01 02:36:56;;;;;;;26.00;4.05;;;;;;;;;;5016807;28;20049;-63
2024/04/01 02:39:21;;;;;;;26.13;3.75;;;;;;;;;;5016651;28;20068;-63
2024/04/01 02:41:48;;;;;;;21.58;3.50;;;;;;;;;;5015826;28;20029;-63
2024/04/01 02:44:13;;;;;;;23.13;4.10;;;;;;;;;;5015794;28;20117;-63
2024/04/01 02:46:42;;;;;;;25.88;4.30;;;;;;;;;;5016878;28;20061;-63
2024/04/01 02:49:09;;;;;;;21.55;3.65;;;;;;;;;;5015306;28;20050;-63
2024/04/01 02:51:35;;;;;;;25.45;3.45;;;;;;;;;;5015379;28;20030;-63
2024/04/01 02:54:00;;;;;;;22.50;3.95;;;;;;;;;;5015584;28;20025;-63
2024/04/01 02:56:26;;;;;;;21.38;3.88;;;;;;;;;;5015216;28;20083;-63
2024/04/01 02:58:52;;;;;;;26.15;4.18;;;;;;;;;;5016137;28;20049;-63
2024/04/01 03:01:18;;;;;;;28.13;3.90;;;;;;;;;;5016650;28;20034;-63
2024/04/01 03:03:44;;;;;;;22.98;3.60;;;;;;;;;;5016611;28;20089;-63
2024/04/01 03:06:11;;;;;;;32.65;4.78;;;;;;;;;;5016257;28;20030;-63
2024/04/01 03:08:38;;;;;;;27.33;4.03;;;;;;;;;;5016206;28;20572;-63
2024/04/01 03:11:04;;;;;;;21.00;3.33;;;;;;;;;;5015430;28;20028;-63
2024/04/01 03:13:29;;;;;;;26.30;3.75;;;;;;;;;;5016113;28;20018;-63
2024/04/01 03:15:55;;;;;;;20.52;2.97;;;;;;;;;;5016108;28;20030;-63
2024/04/01 03:18:21;;;;;;;25.65;3.75;;;;;;;;;;5014740;28;20464;-63
2024/04/01 03:20:47;;;;;;;19.77;3.63;;;;;;;;;;5015885;28;20033;-63
2024/04/01 03:23:16;;;;;;;21.92;3.53;;;;;;;;;;5016214;28;20113;-63
2024/04/01 03:25:42;;;;;;;22.98;3.65;;;;;;;;;;5016165;28;20026;-63
2024/04/01 03:28:07;;;;;;;23.98;3.70;;;;;;;;;;5015847;28;20433;-64
2024/04/01 03:30:33;;;;;;;37.00;5.25;;;;;;;;;;5014565;28;20071;-63
2024/04/01 03:32:58;;;;;;;30.33;4.22;;;;;;;;;;5016023;28;20116;-63
2024/04/01 03:35:24;;;;;;;20.20;3.30;;;;;;;;;;5014493;28;20504;-63
2024/04/01 03:37:49;;;;;;;25.27;3.95;;;;;;;;;;5015910;28;20390;-63
2024/04/01 03:40:14;;;;;;;24.52;3.63;;;;;;;;;;5015789;28;20157;-63
2024/04/01 03:42:40;;;;;;;32.97;4.57;;;;;;;;;;5015567;28;20030;-63
2024/04/01 03:45:08;;;;;;;21.60;3.97;;;;;;;;;;5015770;28;20080;-63
2024/04/01 03:47:33;;;;;;;22.58;3.50;;;;;;;;;;5015724;28;20048;-63
2024/04/01 03:49:59;;;;;;;24.65;3.95;;;;;;;;;;5014283;28;20482;-63
2024/04/01 03:52:37;;;;;;;25.23;3.50;;;;;;;;;;5042953;23;20096;-64
2024/04/01 03:55:02;;;;;;;24.75;4.13;;;;;;;;;;5039505;22;20386;-64
2024/04/01 03:57:28;;;;;;;26.05;3.70;;;;;;;;;;5035031;28;20048;-66
2024/04/01 03:59:53;;;;;;;19.77;3.20;;;;;;;;;;5001925;28;20382;-66
2024/04/01 04:02:18;;;;;;;18.92;2.92;;;;;;;;;;5034206;28;20022;-66
2024/04/01 04:04:44;;;;;;;24.02;3.22;;;;;;;;;;5035729;28;20036;-64
2024/04/01 04:07:09;;;;;;;24.33;3.83;;;;;;;;;;5035097;28;20025;-66
2024/04/01 04:09:34;;;;;;;23.63;3.40;;;;;;;;;;5034788;28;20052;-66
2024/04/01 04:12:00;;;;;;;20.50;3.85;;;;;;;;;;5017638;28;20029;-66
2024/04/01 04:14:25;;;;;;;22.48;3.85;;;;;;;;;;5036159;28;20121;-66
2024/04/01 04:16:51;;;;;;;18.00;3.55;;;;;;;;;;5035499;28;20030;-66
2024/04/01 04:19:17;;;;;;;27.90;4.22;;;;;;;;;;5034807;28;20170;-66
2024/04/01 04:21:43;;;;;;;27.98;3.72;;;;;;;;;;4999465;28;20029;-65
2024/04/01 04:24:10;;;;;;;18.67;3.65;;;;;;;;;;5034514;28;20474;-66
2024/04/01 04:26:35;;;;;;;21.65;3.40;;;;;;;;;;5016947;28;20375;-66
2024/04/01 04:29:01;;;;;;;22.48;4.13;;;;;;;;;;5034444;28;20029;-66
2024/04/01 04:31:27;;;;;;;28.60;4.45;;;;;;;;;;5016855;28;20037;-66
2024/04/01 04:33:52;;;;;;;21.80;3.80;;;;;;;;;;5034646;28;20088;-66
2024/04/01 04:36:17;;;;;;;20.05;3.47;;;;;;;;;;5034314;28;20029;-66
2024/04/01 04:38:43;;;;;;;25.55;3.97;;;;;;;;;;5034203;28;20040;-66
2024/04/01 04:41:09;;;;;;;21.35;4.20;;;;;;;;;;5034499;28;20034;-66
2024/04/01 04:43:34;;;;;;;20.23;3.70;;;;;;;;;;5034450;28;20033;-66
2024/04/01 04:46:00;;;;;;;25.08;4.07;;;;;;;;;;5034145;28;20386;-66
2024/04/01 04:48:26;;;;;;;22.20;3.67;;;;;;;;;;5016545;28;20037;-66
2024/04/01 04:50:51;;;;;;;15.18;3.00;;;;;;;;;;5034325;28;20033;-66
2024/04/01 04:53:16;;;;;;;29.13;3.60;;;;;;;;;;5034040;28;20045;-66
2024/04/01 04:55:42;;;;;;;19.23;3.50;;;;;;;;;;5033878;28;20071;-66
2024/04/01 04:58:09;;;;;;;30.83;3.22;;;;;;;;;;5033936;28;20390;-66
2024/04/01 05:00:34;;;;;;;24.35;3.78;;;;;;;;;;5034131;28;20064;-66
2024/04/01 05:03:00;;;;;;;22.05;3.53;;;;;;;;;;5034177;28;20449;-66
2024/04/01 05:05:25;;;;;;;16.10;3.65;;;;;;;;;;5034375;28;20030;-65
2024/04/01 05:07:51;;;;;;;33.05;4.22;;;;;;;;;;5034355;28;20087;-66
2024/04/01 05:10:16;;;;;;;28.60;3.85;;;;;;;;;;5016108;28;20116;-66
2024/04/01 05:12:44;;;;;;;28.98;4.68;;;;;;;;;;5016380;28;20473;-66
2024/04/01 05:15:10;;;;;;;26.58;4.03;;;;;;;;;;5034280;28;20033;-66
2024/04/01 05:17:36;;;;;;;23.73;3.50;;;;;;;;;;5033903;28;20036;-66
2024/04/01 05:20:01;;;;;;;25.23;3.78;;;;;;;;;;5033874;28;20052;-66
2024/04/01 05:22:27;;;;;;;31.55;4.47;;;;;;;;;;5049599;28;20041;-66
2024/04/01 05:24:56;;;;;;;33.53;5.05;;;;;;;;;;5033892;28;20033;-66
2024/04/01 05:27:21;;;;;;;32.83;4.22;;;;;;;;;;5033905;28;20479;-66
2024/04/01 05:30:09;;;;;;;33.15;4.60;;;;;;;;;;5033553;28;20117;-66
2024/04/01 05:32:34;;;;;;;32.42;4.47;;;;;;;;;;5033081;28;20032;-66
2024/04/01 05:35:00;;;;;;;27.52;4.28;;;;;;;;;;5015828;28;20017;-66
2024/04/01 05:37:26;;;;;;;33.40;6.90;;;;;;;;;;5033510;28;20036;-66
2024/04/01 05:39:51;;;;;;;36.75;8.70;;;;;;;;;;5033380;28;20059;-66
2024/04/01 05:42:17;;;;;;;30.98;6.03;;;;;;;;;;5033433;28;20029;-66
2024/04/01 05:44:43;;;;;;;34.53;4.90;;;;;;;;;;5033663;28;20442;-66
2024/04/01 05:47:08;;;;;;;25.70;4.80;;;;;;;;;;5016217;28;20037;-66
2024/04/01 05:49:34;;;;;;;39.25;5.13;;;;;;;;;;5033915;28;20126;-66
2024/04/01 05:51:59;;;;;;;24.92;4.40;;;;;;;;;;5032058;28;20048;-66
2024/04/01 05:54:25;;;;;;;35.42;4.60;;;;;;;;;;5033622;28;20456;-66
2024/04/01 05:56:50;;;;;;;30.42;4.60;;;;;;;;;;5033218;28;20045;-66
2024/04/01 05:59:16;;;;;;;36.78;6.25;;;;;;;;;;5033212;28;20485;-66
2024/04/01 06:01:41;;;;;;;34.00;4.88;;;;;;;;;;5015658;28;20080;-66
2024/04/01 06:04:06;;;;;;;36.13;4.75;;;;;;;;;;5033232;28;20374;-66
2024/04/01 06:06:32;;;;;;;34.97;5.07;;;;;;;;;;5033506;28;20125;-66
2024/04/01 06:08:58;;;;;;;36.78;5.13;;;;;;;;;;5033420;28;20034;-66
2024/04/01 06:11:24;;;;;;;37.90;6.30;;;;;;;;;;5033454;28;20063;-66
2024/04/01 06:13:49;;;;;;;40.83;5.25;;;;;;;;;;5048444;28;20432;-66
2024/04/01 06:16:16;;;;;;;38.15;5.15;;;;;;;;;;5033139;28;20033;-66
2024/04/01 06:18:42;;;;;;;36.13;5.85;;;;;;;;;;5033607;28;20454;-66
2024/04/01 06:21:07;;;;;;;28.85;4.80;;;;;;;;;;5033074;28;20124;-66
2024/04/01 06:23:32;;;;;;;33.38;4.68;;;;;;;;;;5048343;28;20050;-66
2024/04/01 06:25:58;;;;;;;34.25;5.82;;;;;;;;;;5033314;28;20458;-66
2024/04/01 06:28:23;;;;;;;35.30;4.35;;;;;;;;;;5033292;28;20113;-66
2024/04/01 06:30:49;;;;;;;37.13;4.78;;;;;;;;;;5033277;28;20025;-66
2024/04/01 06:33:15;;;;;;;28.52;4.40;;;;;;;;;;5032959;28;20033;-66
2024/04/01 06:35:40;;;;;;;30.20;4.40;;;;;;;;;;5015278;28;20378;-66
2024/04/01 06:38:06;;;;;;;34.20;5.03;;;;;;;;;;5033171;28;20488;-66
2024/04/01 06:40:34;;;;;;;40.72;8.13;;;;;;;;;;5032801;28;20026;-66
2024/04/01 06:43:00;;;;;;;26.38;6.38;;;;;;;;;;4998831;28;20428;-66
2024/04/01 06:45:25;;;;;;;33.20;6.30;;;;;;;;;;5034222;28;20064;-66
2024/04/01 06:47:51;;;;;;;36.08;5.55;;;;;;;;;;5036377;28;20022;-66
2024/04/01 06:50:16;;;;;;;36.10;5.35;;;;;;;;;;5036335;28;20485;-64
2024/04/01 06:52:42;;;;;;;37.67;5.10;;;;;;;;;;5018620;28;20034;-63
2024/04/01 06:55:08;;;;;;;35.15;5.38;;;;;;;;;;5036369;28;20103;-64
2024/04/01 06:57:33;;;;;;;39.08;6.30;;;;;;;;;;5036521;28;20411;-63
2024/04/01 06:59:58;;;;;;;34.95;5.47;;;;;;;;;;5036066;28;20037;-63
2024/04/01 07:02:24;;;;;;;40.33;5.88;;;;;;;;;;5036419;28;20041;-63
2024/04/01 07:07:22;;;;;;;43.58;5.70;;;;;;;;;;5034592;23;20072;-66
2024/04/01 07:09:47;;;;;;;34.70;4.35;;;;;;;;;;5018353;28;20444;-66
2024/04/01 07:12:13;;;;;;;35.00;5.07;;;;;;;;;;5036208;28;20016;-66
2024/04/01 07:14:38;;;;;;;31.80;4.60;;;;;;;;;;5036182;28;20052;-66
2024/04/01 07:17:03;;;;;;;43.05;5.53;;;;;;;;;;5036422;28;20033;-64
2024/04/01 07:19:29;;;;;;;28.58;4.45;;;;;;;;;;5028806;23;20053;-63
2024/04/01 07:21:54;;;;;;;28.55;4.30;;;;;;;;;;5016550;28;20037;-64
2024/04/01 07:24:19;;;;;;;35.22;3.70;;;;;;;;;;5015915;28;20025;-64
2024/04/01 07:26:45;;;;;;;26.85;3.17;;;;;;;;;;5015889;28;20020;-64
2024/04/01 07:29:10;;;;;;;24.48;3.67;;;;;;;;;;5014972;28;20037;-63
2024/04/01 07:31:35;;;;;;;27.25;3.63;;;;;;;;;;5015805;28;20030;-63
2024/04/01 07:34:01;;;;;;;26.25;3.05;;;;;;;;;;5014519;28;20030;-63
2024/04/01 07:36:27;;;;;;;20.48;3.05;;;;;;;;;;4998178;28;20060;-64
2024/04/01 07:38:53;;;;;;;30.25;3.47;;;;;;;;;;5015833;28;20030;-63
2024/04/01 07:41:18;;;;;;;26.30;3.20;;;;;;;;;;5014465;28;20049;-63
2024/04/01 07:43:44;;;;;;;36.75;4.53;;;;;;;;;;5015875;28;20049;-63
2024/04/01 07:46:09;;;;;;;28.75;4.30;;;;;;;;;;5014957;28;20057;-63
2024/04/01 07:48:37;;;;;;;29.35;3.53;;;;;;;;;;5015734;28;20024;-63
2024/04/01 07:51:03;;;;;;;32.05;4.57;;;;;;;;;;5015726;28;20025;-63
2024/04/01 07:53:28;;;;;;;28.85;3.88;;;;;;;;;;5014098;28;20050;-64
2024/04/01 07:55:54;;;;;;;33.50;3.72;;;;;;;;;;5014913;28;20437;-64
2024/04/01 07:58:20;;;;;;;34.30;4.65;;;;;;;;;;5015356;28;20041;-63
2024/04/01 08:00:45;;;;;;;26.10;3.83;;;;;;;;;;5015731;28;20038;-63
2024/04/01 08:03:12;;;;;;;26.08;4.43;;;;;;;;;;5015241;28;20030;-63
2024/04/01 08:05:38;;;;;;;33.67;4.40;;;;;;;;;;5013898;28;20030;-63
2024/04/01 08:08:04;;;;;;;29.13;4.50;;;;;;;;;;5014260;28;20497;-63
2024/04/01 08:10:30;;;;;;;31.42;4.63;;;;;;;;;;5013838;28;20053;-63
2024/04/01 08:12:55;;;;;;;34.95;4.55;;;;;;;;;;5015271;28;20076;-63
2024/04/01 08:15:21;;;;;;;28.40;4.05;;;;;;;;;;5015033;28;20042;-63
2024/04/01 08:17:47;;;;;;;27.63;3.45;;;;;;;;;;5015208;28;20034;-64
2024/04/01 08:20:12;;;;;;;26.02;3.53;;;;;;;;;;4997325;28;20054;-63
2024/04/01 08:22:38;;;;;;;31.65;4.63;;;;;;;;;;5013686;28;20041;-63
2024/04/01 08:25:04;;;;;;;28.58;3.53;;;;;;;;;;5015391;28;20058;-63
2024/04/01 08:27:29;;;;;;;23.02;2.65;;;;;;;;;;5015331;28;20365;-63
2024/04/01 08:29:55;;;;;;;26.40;3.20;;;;;;;;;;5014735;28;20037;-63
2024/04/01 08:32:20;;;;;;;30.38;3.75;;;;;;;;;;5015276;28;20022;-64
2024/04/01 08:34:46;;;;;;;25.70;3.90;;;;;;;;;;5013483;28;20489;-63
2024/04/01 08:37:11;;;;;;;32.90;4.30;;;;;;;;;;4996992;28;20041;-63
2024/04/01 08:39:36;;;;;;;27.02;4.03;;;;;;;;;;5014449;28;20034;-63
2024/04/01 08:42:03;;;;;;;39.50;4.85;;;;;;;;;;5014756;28;20378;-63
2024/04/01 08:44:31;;;;;;;34.88;4.43;;;;;;;;;;5014759;28;20117;-63
2024/04/01 08:46:58;;;;;;;28.65;4.03;;;;;;;;;;5013185;28;20370;-64
2024/04/01 08:49:43;;;;;;;30.77;4.30;;;;;;;;;;5014439;28;20100;-63
2024/04/01 08:52:11;;;;;;;31.27;4.25;;;;;;;;;;5014638;28;20042;-64
2024/04/01 08:54:37;;;;;;;26.73;3.65;;;;;;;;;;5014891;28;20075;-63
2024/04/01 08:57:02;;;;;;;28.13;3.40;;;;;;;;;;5014607;28;20532;-63
2024/04/01 08:59:29;;;;;;;29.80;3.30;;;;;;;;;;5014729;28;20445;-64
2024/04/01 09:01:54;;;;;;;24.48;3.08;;;;;;;;;;5014244;28;20092;-63
2024/04/01 09:04:19;;;;;;;34.20;3.65;;;;;;;;;;5014228;28;20474;-63
2024/04/01 09:06:45;;;;;;;29.60;3.80;;;;;;;;;;5014721;28;20030;-63
2024/04/01 09:09:11;;;;;;;26.02;2.97;;;;;;;;;;5013529;28;20026;-63
2024/04/01 09:11:37;;;;;;;22.23;2.92;;;;;;;;;;5013471;28;20497;-63
2024/04/01 09:14:02;;;;;;;31.55;4.20;;;;;;;;;;5014084;28;20022;-63
2024/04/01 09:16:28;;;;;;;28.13;3.47;;;;;;;;;;5012731;28;20192;-63
2024/04/01 09:18:58;;;;;;;24.40;3.40;;;;;;;;;;5014494;28;20045;-63
2024/04/01 09:21:23;;;;;;;28.90;3.53;;;;;;;;;;5014221;28;20037;-63
2024/04/01 09:23:51;;;;;;;7.53;1.35;;;;;;;;;;5022739;23;20736;-63
2024/04/01 09:26:17;;;;;;;0.25;0.25;;;;;;;;;;4994835;28;20031;-63
2024/04/01 09:28:42;;;;;;;27.67;3.63;;;;;;;;;;4994286;28;20398;-63
2024/04/01 09:31:08;;;;;;;32.05;3.60;;;;;;;;;;4994250;28;20058;-63
2024/04/01 09:33:34;;;;;;;18.50;2.80;;;;;;;;;;4993668;28;20042;-63
2024/04/01 09:35:59;;;;;;;1.30;0.50;;;;;;;;;;5059009;22;20046;-63
2024/04/01 09:38:25;;;;;;;30.58;3.50;;;;;;;;;;5012511;23;20066;-63
2024/04/01 09:40:51;;;;;;;26.20;3.05;;;;;;;;;;4994033;28;20118;-63
2024/04/01 09:43:26;;;;;;;30.88;3.92;;;;;;;;;;4994392;28;20030;-63
2024/04/01 09:45:52;;;;;;;25.35;3.25;;;;;;;;;;4994064;28;20545;-63
2024/04/01 09:48:19;;;;;;;7.65;2.08;;;;;;;;;;4994092;28;20057;-63
2024/04/01 09:50:45;;;;;;;15.32;2.70;;;;;;;;;;4992826;28;20398;-63
2024/04/01 09:53:10;;;;;;;3.15;1.13;;;;;;;;;;4992916;28;20022;-63
2024/04/01 09:55:47;;;;;;;33.88;4.47;;;;;;;;;;4994244;28;20077;-63
2024/04/01 09:58:35;;;;;;;29.67;3.65;;;;;;;;;;5038908;22;20061;-65
2024/04/01 10:01:00;;;;;;;31.58;3.58;;;;;;;;;;5053095;22;20088;-63
2024/04/01 10:03:37;;;;;;;40.72;5.03;;;;;;;;;;5033529;28;20030;-63
2024/04/01 10:06:06;;;;;;;6.20;1.13;;;;;;;;;;5033516;28;20109;-63
2024/04/01 10:08:50;;;;;;;40.90;4.03;;;;;;;;;;5033214;28;20485;-63
2024/04/01 10:11:32;;;;;;;17.08;2.38;;;;;;;;;;5033447;28;20128;-63
2024/04/01 10:14:08;;;;;;;27.10;3.08;;;;;;;;;;5033398;28;20045;-63
2024/04/01 10:16:45;;;;;;;5.45;0.98;;;;;;;;;;5033720;28;20025;-63
2024/04/01 10:19:31;;;;;;;27.38;3.83;;;;;;;;;;5034129;28;20041;-63
2024/04/01 10:22:15;;;;;;;7.32;1.13;;;;;;;;;;5037583;28;20021;-63
2024/04/01 10:24:56;;;;;;;22.95;3.28;;;;;;;;;;5020864;28;20045;-63
2024/04/01 10:27:25;;;;;;;25.10;3.25;;;;;;;;;;5037174;28;20033;-63
2024/04/01 10:29:50;;;;;;;32.28;3.25;;;;;;;;;;5037358;28;20040;-64
2024/04/01 10:32:40;;;;;;;26.10;3.85;;;;;;;;;;5037239;28;20029;-63
2024/04/01 10:35:05;;;;;;;19.85;2.83;;;;;;;;;;5019323;28;20065;-63
2024/04/01 10:37:49;;;;;;;14.77;2.70;;;;;;;;;;5037192;28;20060;-63
2024/04/01 10:40:33;;;;;;;29.17;3.88;;;;;;;;;;5036475;28;20045;-64
2024/04/01 10:43:17;;;;;;;5.30;1.23;;;;;;;;;;5036788;28;20028;-63
2024/04/01 10:46:05;;;;;;;18.38;1.60;;;;;;;;;;5036487;28;20113;-63
2024/04/01 10:48:33;;;;;;;36.63;4.47;;;;;;;;;;5037185;28;20076;-63
2024/04/01 10:51:18;;;;;;;35.25;4.75;;;;;;;;;;5036312;28;20098;-63
2024/04/01 10:53:57;;;;;;;28.92;4.28;;;;;;;;;;5034730;28;20041;-63
2024/04/01 10:56:25;;;;;;;34.80;4.43;;;;;;;;;;5036567;28;20112;-64
2024/04/01 10:59:18;;;;;;;30.15;3.80;;;;;;;;;;5036548;28;20059;-63
2024/04/01 11:02:02;;;;;;;31.65;4.45;;;;;;;;;;5004770;28;20043;-63
2024/04/01 11:04:40;;;;;;;27.80;3.85;;;;;;;;;;4995848;28;20042;-63
2024/04/01 11:07:13;;;;;;;21.73;3.65;;;;;;;;;;4997287;28;20034;-63
2024/04/01 11:09:41;;;;;;;29.10;3.38;;;;;;;;;;4995390;28;20022;-64
2024/04/01 11:12:13;;;;;;;26.02;3.20;;;;;;;;;;4995096;28;20026;-63
2024/04/01 11:14:39;;;;;;;28.08;3.03;;;;;;;;;;4996651;28;20371;-64
2024/04/01 11:17:07;;;;;;;40.13;4.45;;;;;;;;;;4996511;28;20054;-63
2024/04/01 11:19:50;;;;;;;26.50;3.53;;;;;;;;;;4995261;28;20065;-63
2024/04/01 11:22:18;;;;;;;23.13;3.50;;;;;;;;;;4993357;28;20585;-63
2024/04/01 11:24:54;;;;;;;14.48;1.75;;;;;;;;;;4993476;28;20038;-63
2024/04/01 11:27:34;;;;;;;23.70;3.05;;;;;;;;;;4993646;28;20046;-64
2024/04/01 11:30:00;;;;;;;;;;;;;;;;;;4994122;28;20110;-63
2024/04/01 11:32:29;;;;;;;32.63;4.15;;;;;;;;;;4991970;28;19917;-63
2024/04/01 11:35:07;;;;;;;21.25;2.95;;;;;;;;;;4993938;28;20033;-63
2024/04/01 11:37:35;;;;;;;33.08;3.85;;;;;;;;;;4994217;28;20022;-63
2024/04/01 11:40:02;;;;;;;35.22;3.85;;;;;;;;;;4994601;28;20049;-63
2024/04/01 11:42:28;;;;;;;18.58;2.17;;;;;;;;;;4995329;28;20041;-64
2024/04/01 11:44:54;;;;;;;21.55;4.05;;;;;;;;;;4996030;28;20022;-66
2024/04/01 11:47:21;;;;;;;31.45;4.20;;;;;;;;;;4995981;28;20124;-66
2024/04/01 11:49:46;;;;;;;15.00;2.25;;;;;;;;;;4995934;28;20030;-66
2024/04/01 11:52:16;;;;;;;18.15;2.55;;;;;;;;;;4996421;28;20045;-66
2024/04/01 11:54:41;;;;;;;24.63;3.33;;;;;;;;;;4994713;28;20125;-63
2024/04/01 11:57:07;;;;;;;27.75;3.70;;;;;;;;;;4996042;28;20109;-63
2024/04/01 11:59:32;;;;;;;30.27;3.28;;;;;;;;;;4995599;28;20058;-64
2024/04/01 12:01:58;;;;;;;40.75;4.85;;;;;;;;;;4994531;28;20038;-63
2024/04/01 12:04:24;;;;;;;26.67;3.97;;;;;;;;;;4996174;28;20030;-63
2024/04/01 12:06:50;;;;;;;32.20;4.55;;;;;;;;;;4995574;28;20038;-64
2024/04/01 12:09:19;;;;;;;21.38;2.80;;;;;;;;;;4995816;28;20025;-63
2024/04/01 12:11:45;;;;;;;33.08;4.22;;;;;;;;;;4994780;28;20040;-63
2024/04/01 12:14:10;;;;;;;21.92;3.40;;;;;;;;;;4995757;28;20047;-63
2024/04/01 12:16:36;;;;;;;29.90;3.35;;;;;;;;;;4995676;28;20022;-63
2024/04/01 12:19:02;;;;;;;25.10;3.45;;;;;;;;;;4977911;28;20125;-63
2024/04/01 12:21:33;;;;;;;28.10;3.65;;;;;;;;;;4994074;28;20089;-63
2024/04/01 12:24:03;;;;;;;31.35;4.07;;;;;;;;;;4995802;28;20068;-63
2024/04/01 12:26:36;;;;;;;35.97;3.75;;;;;;;;;;5010884;28;20034;-63
2024/04/01 12:29:01;;;;;;;33.42;4.00;;;;;;;;;;4995451;28;20114;-63
2024/04/01 12:31:27;;;;;;;41.40;4.38;;;;;;;;;;5050574;22;20477;-64
2024/04/01 12:33:52;;;;;;;39.10;3.97;;;;;;;;;;5034435;28;20520;-66
2024/04/01 12:36:18;;;;;;;27.50;3.80;;;;;;;;;;5034362;28;20040;-66
2024/04/01 12:38:45;;;;;;;27.77;3.70;;;;;;;;;;5034334;28;20121;-66
2024/04/01 12:41:17;;;;;;;26.23;3.67;;;;;;;;;;5034502;28;20453;-66
2024/04/01 12:43:43;;;;;;;22.63;3.92;;;;;;;;;;5034560;28;20032;-65
2024/04/01 12:46:11;;;;;;;32.55;4.55;;;;;;;;;;5036352;28;20423;-66
2024/04/01 12:48:38;;;;;;;26.25;4.70;;;;;;;;;;5035821;28;20171;-66
2024/04/01 12:51:04;;;;;;;31.98;4.00;;;;;;;;;;5034195;28;20469;-66
2024/04/01 12:53:31;;;;;;;27.90;4.13;;;;;;;;;;5034099;28;20049;-66
2024/04/01 12:56:15;;;;;;;27.05;3.95;;;;;;;;;;5034634;28;20034;-66
2024/04/01 12:58:46;;;;;;;27.40;3.75;;;;;;;;;;5034241;28;20465;-66
2024/04/01 13:01:18;;;;;;;26.10;3.88;;;;;;;;;;5034161;28;20503;-66
2024/04/01 13:03:56;;;;;;;32.20;4.10;;;;;;;;;;5016194;28;20048;-66
2024/04/01 13:06:31;;;;;;;29.65;4.28;;;;;;;;;;5034462;28;20061;-66
2024/04/01 13:09:10;;;;;;;29.15;4.25;;;;;;;;;;5034114;28;20026;-66
2024/04/01 13:11:35;;;;;;;30.13;3.75;;;;;;;;;;5016114;28;20025;-66
2024/04/01 13:14:08;;;;;;;29.05;4.68;;;;;;;;;;5032507;28;20027;-66
2024/04/01 13:16:49;;;;;;;29.00;3.85;;;;;;;;;;5034007;28;20040;-66
2024/04/01 13:19:20;;;;;;;36.65;4.65;;;;;;;;;;5015962;28;20060;-66
2024/04/01 13:21:51;;;;;;;31.90;4.35;;;;;;;;;;5033935;28;20033;-66
2024/04/01 13:24:32;;;;;;;24.88;4.10;;;;;;;;;;5033915;28;20025;-66
2024/04/01 13:27:05;;;;;;;35.15;4.20;;;;;;;;;;5033864;28;20480;-66
2024/04/01 13:29:36;;;;;;;32.95;4.45;;;;;;;;;;5033586;28;20037;-66
2024/04/01 13:32:08;;;;;;;28.52;4.57;;;;;;;;;;5049298;28;20057;-66
2024/04/01 13:34:54;;;;;;;32.47;3.90;;;;;;;;;;5015822;28;20440;-66
2024/04/01 13:37:25;;;;;;;26.85;3.53;;;;;;;;;;5048904;28;20040;-66
2024/04/01 13:40:18;;;;;;;31.52;3.85;;;;;;;;;;5033701;28;20155;-66
2024/04/01 13:42:43;;;;;;;29.02;3.67;;;;;;;;;;5033720;28;20025;-66
2024/04/01 13:45:09;;;;;;;24.85;4.20;;;;;;;;;;5033979;28;20036;-66
2024/04/01 13:47:55;;;;;;;31.70;4.15;;;;;;;;;;5033423;28;20228;-66
2024/04/01 13:50:24;;;;;;;18.80;2.78;;;;;;;;;;5033922;28;20034;-66
2024/04/01 13:52:52;;;;;;;29.93;3.93;;;;;;;;;;5015945;28;20172;-66
2024/04/01 13:55:19;;;;;;;27.58;3.55;;;;;;;;;;5052830;28;20049;-66
2024/04/01 14:00:58;;;;;;;25.33;4.18;;;;;;;;;;5043739;23;20045;-63
2024/04/01 14:03:43;;;;;;;24.77;3.40;;;;;;;;;;5019875;28;20091;-63
2024/04/01 14:06:08;;;;;;;28.25;4.15;;;;;;;;;;5037462;28;20466;-63
2024/04/01 14:08:45;;;;;;;28.92;3.42;;;;;;;;;;5037466;28;20032;-63
2024/04/01 14:11:26;;;;;;;30.02;4.05;;;;;;;;;;5036663;22;20053;-64
2024/04/01 14:14:12;;;;;;;33.65;4.38;;;;;;;;;;5017207;28;20423;-66
2024/04/01 14:16:47;;;;;;;24.15;3.47;;;;;;;;;;4999651;28;20394;-66
2024/04/01 14:19:19;;;;;;;34.45;3.80;;;;;;;;;;5032362;28;20034;-66
2024/04/01 14:21:44;;;;;;;26.85;3.65;;;;;;;;;;4983348;28;20034;-66
2024/04/01 14:24:16;;;;;;;23.67;3.35;;;;;;;;;;5017132;28;20567;-66
2024/04/01 14:26:42;;;;;;;31.10;3.75;;;;;;;;;;5017250;28;20037;-66
2024/04/01 14:29:10;;;;;;;28.45;3.72;;;;;;;;;;5017280;28;20022;-66
2024/04/01 14:31:37;;;;;;;29.65;3.38;;;;;;;;;;5017475;28;20057;-66
2024/04/01 14:34:02;;;;;;;28.08;3.80;;;;;;;;;;5019258;28;20041;-66
2024/04/01 14:36:28;;;;;;;28.63;3.88;;;;;;;;;;5019199;28;20053;-66
2024/04/01 14:38:53;;;;;;;24.70;4.18;;;;;;;;;;5017205;28;20073;-66
2024/04/01 14:41:19;;;;;;;26.52;3.30;;;;;;;;;;5016739;28;20022;-66